sensor_id;sensor_type;location;lat;lon;timestamp;P1;durP1;ratioP1;P2;durP2;ratioP2
5890;SDS011;2971;52.420;7.080;2023-06-14T00:01:45;6.03;;;2.90;;
5890;SDS011;2971;52.420;7.080;2023-06-14T00:04:12;6.17;;;3.20;;
5890;SDS011;2971;52.420;7.080;2023-06-14T00:06:38;5.57;;;3.23;;
5890;SDS011;2971;52.420;7.080;2023-06-14T00:09:04;6.67;;;3.10;;
5890;SDS011;2971;52.420;7.080;2023-06-14T00:11:30;4.73;;;3.10;;
5890;SDS011;2971;52.420;7.080;2023-06-14T00:13:56;6.73;;;3.30;;
5890;SDS011;2971;52.420;7.080;2023-06-14T00:16:22;5.30;;;3.07;;
5890;SDS011;2971;52.420;7.080;2023-06-14T00:18:48;4.57;;;3.27;;
5890;SDS011;2971;52.420;7.080;2023-06-14T00:21:13;6.93;;;3.07;;
5890;SDS011;2971;52.420;7.080;2023-06-14T00:23:39;8.13;;;3.17;;
5890;SDS011;2971;52.420;7.080;2023-06-14T00:26:04;5.93;;;3.20;;
5890;SDS011;2971;52.420;7.080;2023-06-14T00:28:30;5.50;;;3.27;;
5890;SDS011;2971;52.420;7.080;2023-06-14T00:30:55;5.20;;;2.80;;
5890;SDS011;2971;52.420;7.080;2023-06-14T00:33:21;5.23;;;2.83;;
5890;SDS011;2971;52.420;7.080;2023-06-14T00:35:46;4.57;;;3.20;;
5890;SDS011;2971;52.420;7.080;2023-06-14T00:38:12;5.20;;;3.07;;
5890;SDS011;2971;52.420;7.080;2023-06-14T00:40:37;6.77;;;3.47;;
5890;SDS011;2971;52.420;7.080;2023-06-14T00:43:03;4.80;;;3.30;;
5890;SDS011;2971;52.420;7.080;2023-06-14T00:45:28;7.37;;;3.30;;
5890;SDS011;2971;52.420;7.080;2023-06-14T00:47:56;7.10;;;3.30;;
5890;SDS011;2971;52.420;7.080;2023-06-14T00:50:22;4.73;;;3.10;;
5890;SDS011;2971;52.420;7.080;2023-06-14T00:52:48;6.33;;;3.27;;
5890;SDS011;2971;52.420;7.080;2023-06-14T00:55:14;5.73;;;3.20;;
5890;SDS011;2971;52.420;7.080;2023-06-14T00:57:40;5.37;;;3.00;;
5890;SDS011;2971;52.420;7.080;2023-06-14T01:00:06;7.17;;;3.50;;
5890;SDS011;2971;52.420;7.080;2023-06-14T01:02:39;5.60;;;2.93;;
5890;SDS011;2971;52.420;7.080;2023-06-14T01:05:05;4.93;;;3.10;;
5890;SDS011;2971;52.420;7.080;2023-06-14T01:15:30;4.00;;;3.27;;
5890;SDS011;2971;52.420;7.080;2023-06-14T01:17:56;7.47;;;3.10;;
5890;SDS011;2971;52.420;7.080;2023-06-14T01:20:28;5.23;;;3.17;;
5890;SDS011;2971;52.420;7.080;2023-06-14T01:22:57;4.33;;;3.33;;
5890;SDS011;2971;52.420;7.080;2023-06-14T01:25:23;4.77;;;2.90;;
5890;SDS011;2971;52.420;7.080;2023-06-14T01:27:50;6.17;;;3.30;;
5890;SDS011;2971;52.420;7.080;2023-06-14T01:30:17;4.43;;;3.33;;
5890;SDS011;2971;52.420;7.080;2023-06-14T01:32:43;5.87;;;3.00;;
5890;SDS011;2971;52.420;7.080;2023-06-14T01:35:09;7.50;;;3.40;;
5890;SDS011;2971;52.420;7.080;2023-06-14T01:37:34;3.80;;;3.20;;
5890;SDS011;2971;52.420;7.080;2023-06-14T01:40:01;4.57;;;3.10;;
5890;SDS011;2971;52.420;7.080;2023-06-14T01:42:28;7.30;;;3.30;;
5890;SDS011;2971;52.420;7.080;2023-06-14T01:44:54;5.87;;;3.20;;
5890;SDS011;2971;52.420;7.080;2023-06-14T01:47:20;5.00;;;2.77;;
5890;SDS011;2971;52.420;7.080;2023-06-14T01:49:46;6.33;;;3.20;;
5890;SDS011;2971;52.420;7.080;2023-06-14T01:52:12;6.23;;;3.10;;
5890;SDS011;2971;52.420;7.080;2023-06-14T01:54:38;7.03;;;3.33;;
5890;SDS011;2971;52.420;7.080;2023-06-14T01:57:08;4.70;;;3.10;;
5890;SDS011;2971;52.420;7.080;2023-06-14T01:59:33;4.23;;;2.90;;
5890;SDS011;2971;52.420;7.080;2023-06-14T02:02:00;5.97;;;3.23;;
5890;SDS011;2971;52.420;7.080;2023-06-14T02:04:28;7.40;;;3.20;;
5890;SDS011;2971;52.420;7.080;2023-06-14T02:06:53;5.07;;;3.20;;
5890;SDS011;2971;52.420;7.080;2023-06-14T02:09:18;6.13;;;3.40;;
5890;SDS011;2971;52.420;7.080;2023-06-14T02:11:44;4.97;;;3.13;;
5890;SDS011;2971;52.420;7.080;2023-06-14T02:14:10;7.40;;;3.10;;
5890;SDS011;2971;52.420;7.080;2023-06-14T02:16:36;6.93;;;3.13;;
5890;SDS011;2971;52.420;7.080;2023-06-14T02:19:02;6.67;;;2.93;;
5890;SDS011;2971;52.420;7.080;2023-06-14T02:21:27;6.07;;;3.37;;
5890;SDS011;2971;52.420;7.080;2023-06-14T02:23:53;5.33;;;3.20;;
5890;SDS011;2971;52.420;7.080;2023-06-14T02:26:18;5.97;;;2.90;;
5890;SDS011;2971;52.420;7.080;2023-06-14T02:28:44;6.00;;;3.20;;
5890;SDS011;2971;52.420;7.080;2023-06-14T02:31:09;7.67;;;3.80;;
5890;SDS011;2971;52.420;7.080;2023-06-14T02:33:34;5.07;;;3.33;;
5890;SDS011;2971;52.420;7.080;2023-06-14T02:36:00;5.27;;;3.17;;
5890;SDS011;2971;52.420;7.080;2023-06-14T02:38:27;6.63;;;3.20;;
5890;SDS011;2971;52.420;7.080;2023-06-14T02:40:53;5.40;;;3.03;;
5890;SDS011;2971;52.420;7.080;2023-06-14T02:43:18;4.13;;;3.00;;
5890;SDS011;2971;52.420;7.080;2023-06-14T02:45:44;4.53;;;3.20;;
5890;SDS011;2971;52.420;7.080;2023-06-14T02:48:10;5.33;;;3.03;;
5890;SDS011;2971;52.420;7.080;2023-06-14T02:50:36;5.03;;;3.10;;
5890;SDS011;2971;52.420;7.080;2023-06-14T02:53:01;3.53;;;3.00;;
5890;SDS011;2971;52.420;7.080;2023-06-14T02:55:27;3.17;;;2.77;;
5890;SDS011;2971;52.420;7.080;2023-06-14T02:57:53;4.77;;;3.00;;
5890;SDS011;2971;52.420;7.080;2023-06-14T03:00:19;5.03;;;2.97;;
5890;SDS011;2971;52.420;7.080;2023-06-14T03:02:44;6.10;;;3.37;;
5890;SDS011;2971;52.420;7.080;2023-06-14T03:05:10;4.93;;;3.10;;
5890;SDS011;2971;52.420;7.080;2023-06-14T03:07:36;3.90;;;3.20;;
5890;SDS011;2971;52.420;7.080;2023-06-14T03:10:06;4.17;;;2.90;;
5890;SDS011;2971;52.420;7.080;2023-06-14T03:12:37;5.23;;;2.97;;
5890;SDS011;2971;52.420;7.080;2023-06-14T03:15:03;4.50;;;2.93;;
5890;SDS011;2971;52.420;7.080;2023-06-14T03:17:29;5.07;;;3.17;;
5890;SDS011;2971;52.420;7.080;2023-06-14T03:19:59;4.17;;;3.03;;
5890;SDS011;2971;52.420;7.080;2023-06-14T03:22:25;4.83;;;2.90;;
5890;SDS011;2971;52.420;7.080;2023-06-14T03:24:51;5.33;;;3.10;;
5890;SDS011;2971;52.420;7.080;2023-06-14T03:27:17;4.13;;;3.10;;
5890;SDS011;2971;52.420;7.080;2023-06-14T03:29:43;6.67;;;3.00;;
5890;SDS011;2971;52.420;7.080;2023-06-14T03:32:09;4.50;;;3.13;;
5890;SDS011;2971;52.420;7.080;2023-06-14T03:34:34;5.47;;;3.30;;
5890;SDS011;2971;52.420;7.080;2023-06-14T03:37:00;3.77;;;3.10;;
5890;SDS011;2971;52.420;7.080;2023-06-14T03:39:25;5.07;;;3.10;;
5890;SDS011;2971;52.420;7.080;2023-06-14T03:41:52;4.63;;;3.00;;
5890;SDS011;2971;52.420;7.080;2023-06-14T03:44:17;6.37;;;3.30;;
5890;SDS011;2971;52.420;7.080;2023-06-14T03:46:43;4.13;;;3.30;;
5890;SDS011;2971;52.420;7.080;2023-06-14T03:49:12;3.10;;;2.87;;
5890;SDS011;2971;52.420;7.080;2023-06-14T03:51:37;4.73;;;3.10;;
5890;SDS011;2971;52.420;7.080;2023-06-14T03:54:03;7.53;;;3.30;;
5890;SDS011;2971;52.420;7.080;2023-06-14T03:56:28;4.83;;;3.10;;
5890;SDS011;2971;52.420;7.080;2023-06-14T03:58:53;4.90;;;3.10;;
5890;SDS011;2971;52.420;7.080;2023-06-14T04:01:20;6.83;;;3.40;;
5890;SDS011;2971;52.420;7.080;2023-06-14T04:03:46;5.00;;;3.20;;
5890;SDS011;2971;52.420;7.080;2023-06-14T04:06:11;6.27;;;3.50;;
5890;SDS011;2971;52.420;7.080;2023-06-14T04:08:37;6.90;;;3.40;;
5890;SDS011;2971;52.420;7.080;2023-06-14T04:11:04;4.83;;;3.47;;
5890;SDS011;2971;52.420;7.080;2023-06-14T04:13:30;3.80;;;3.07;;
5890;SDS011;2971;52.420;7.080;2023-06-14T04:15:56;6.13;;;3.20;;
5890;SDS011;2971;52.420;7.080;2023-06-14T04:18:24;3.90;;;3.20;;
5890;SDS011;2971;52.420;7.080;2023-06-14T04:20:50;7.20;;;3.50;;
5890;SDS011;2971;52.420;7.080;2023-06-14T04:23:16;5.47;;;3.17;;
5890;SDS011;2971;52.420;7.080;2023-06-14T04:25:46;4.03;;;3.30;;
5890;SDS011;2971;52.420;7.080;2023-06-14T04:28:13;5.60;;;3.13;;
5890;SDS011;2971;52.420;7.080;2023-06-14T04:30:40;4.73;;;3.23;;
5890;SDS011;2971;52.420;7.080;2023-06-14T04:33:05;4.67;;;3.30;;
5890;SDS011;2971;52.420;7.080;2023-06-14T04:35:31;4.03;;;3.00;;
5890;SDS011;2971;52.420;7.080;2023-06-14T04:38:01;6.83;;;3.30;;
5890;SDS011;2971;52.420;7.080;2023-06-14T04:40:26;5.00;;;3.10;;
5890;SDS011;2971;52.420;7.080;2023-06-14T04:42:52;5.90;;;3.50;;
5890;SDS011;2971;52.420;7.080;2023-06-14T04:45:17;6.23;;;3.33;;
5890;SDS011;2971;52.420;7.080;2023-06-14T04:47:43;4.23;;;3.00;;
5890;SDS011;2971;52.420;7.080;2023-06-14T04:50:09;3.57;;;3.10;;
5890;SDS011;2971;52.420;7.080;2023-06-14T04:52:36;5.37;;;3.50;;
5890;SDS011;2971;52.420;7.080;2023-06-14T04:55:02;6.60;;;3.20;;
5890;SDS011;2971;52.420;7.080;2023-06-14T04:57:28;4.13;;;3.30;;
5890;SDS011;2971;52.420;7.080;2023-06-14T04:59:54;4.77;;;3.33;;
5890;SDS011;2971;52.420;7.080;2023-06-14T05:02:20;3.83;;;3.30;;
5890;SDS011;2971;52.420;7.080;2023-06-14T05:04:47;6.53;;;3.40;;
5890;SDS011;2971;52.420;7.080;2023-06-14T05:07:12;7.23;;;3.53;;
5890;SDS011;2971;52.420;7.080;2023-06-14T05:09:39;5.40;;;4.00;;
5890;SDS011;2971;52.420;7.080;2023-06-14T05:12:04;4.50;;;3.10;;
5890;SDS011;2971;52.420;7.080;2023-06-14T05:14:33;6.00;;;3.50;;
5890;SDS011;2971;52.420;7.080;2023-06-14T05:16:59;5.30;;;3.33;;
5890;SDS011;2971;52.420;7.080;2023-06-14T05:19:24;4.80;;;3.73;;
5890;SDS011;2971;52.420;7.080;2023-06-14T05:21:50;4.40;;;3.63;;
5890;SDS011;2971;52.420;7.080;2023-06-14T05:24:16;4.33;;;3.50;;
5890;SDS011;2971;52.420;7.080;2023-06-14T05:26:42;3.43;;;3.10;;
5890;SDS011;2971;52.420;7.080;2023-06-14T05:29:09;4.07;;;3.27;;
5890;SDS011;2971;52.420;7.080;2023-06-14T05:31:34;4.67;;;3.33;;
5890;SDS011;2971;52.420;7.080;2023-06-14T05:33:59;5.33;;;3.43;;
5890;SDS011;2971;52.420;7.080;2023-06-14T05:36:25;7.57;;;3.40;;
5890;SDS011;2971;52.420;7.080;2023-06-14T05:38:52;5.20;;;3.43;;
5890;SDS011;2971;52.420;7.080;2023-06-14T05:41:28;9.03;;;3.67;;
5890;SDS011;2971;52.420;7.080;2023-06-14T05:43:54;5.70;;;3.23;;
5890;SDS011;2971;52.420;7.080;2023-06-14T05:46:20;7.30;;;3.57;;
5890;SDS011;2971;52.420;7.080;2023-06-14T05:48:49;9.10;;;3.50;;
5890;SDS011;2971;52.420;7.080;2023-06-14T05:51:15;6.20;;;3.83;;
5890;SDS011;2971;52.420;7.080;2023-06-14T05:53:43;5.53;;;3.37;;
5890;SDS011;2971;52.420;7.080;2023-06-14T05:56:09;8.80;;;3.60;;
5890;SDS011;2971;52.420;7.080;2023-06-14T05:58:35;4.70;;;3.50;;
5890;SDS011;2971;52.420;7.080;2023-06-14T06:01:00;5.67;;;3.13;;
5890;SDS011;2971;52.420;7.080;2023-06-14T06:03:26;5.70;;;3.07;;
5890;SDS011;2971;52.420;7.080;2023-06-14T06:05:54;6.07;;;3.07;;
5890;SDS011;2971;52.420;7.080;2023-06-14T06:08:19;3.40;;;2.87;;
5890;SDS011;2971;52.420;7.080;2023-06-14T06:10:45;3.30;;;3.00;;
5890;SDS011;2971;52.420;7.080;2023-06-14T06:13:11;6.37;;;3.43;;
5890;SDS011;2971;52.420;7.080;2023-06-14T06:15:36;3.87;;;2.70;;
5890;SDS011;2971;52.420;7.080;2023-06-14T06:18:02;5.43;;;2.90;;
5890;SDS011;2971;52.420;7.080;2023-06-14T06:20:27;6.43;;;3.10;;
5890;SDS011;2971;52.420;7.080;2023-06-14T06:22:53;7.23;;;3.10;;
5890;SDS011;2971;52.420;7.080;2023-06-14T06:25:19;3.90;;;3.07;;
5890;SDS011;2971;52.420;7.080;2023-06-14T06:27:45;5.30;;;2.87;;
5890;SDS011;2971;52.420;7.080;2023-06-14T06:30:10;4.70;;;3.00;;
5890;SDS011;2971;52.420;7.080;2023-06-14T06:32:36;5.50;;;2.90;;
5890;SDS011;2971;52.420;7.080;2023-06-14T06:35:02;9.33;;;3.30;;
5890;SDS011;2971;52.420;7.080;2023-06-14T06:37:31;4.30;;;3.00;;
5890;SDS011;2971;52.420;7.080;2023-06-14T06:39:56;3.20;;;2.60;;
5890;SDS011;2971;52.420;7.080;2023-06-14T06:42:22;3.50;;;2.83;;
5890;SDS011;2971;52.420;7.080;2023-06-14T06:44:47;6.43;;;2.93;;
5890;SDS011;2971;52.420;7.080;2023-06-14T06:47:12;5.23;;;2.73;;
5890;SDS011;2971;52.420;7.080;2023-06-14T06:49:38;4.63;;;2.73;;
5890;SDS011;2971;52.420;7.080;2023-06-14T06:52:04;5.13;;;3.00;;
5890;SDS011;2971;52.420;7.080;2023-06-14T06:54:31;4.37;;;2.63;;
5890;SDS011;2971;52.420;7.080;2023-06-14T06:56:57;4.97;;;2.60;;
5890;SDS011;2971;52.420;7.080;2023-06-14T06:59:22;3.93;;;2.67;;
5890;SDS011;2971;52.420;7.080;2023-06-14T07:01:48;10.13;;;2.70;;
5890;SDS011;2971;52.420;7.080;2023-06-14T07:04:13;6.00;;;2.73;;
5890;SDS011;2971;52.420;7.080;2023-06-14T07:06:39;3.77;;;2.37;;
5890;SDS011;2971;52.420;7.080;2023-06-14T07:09:05;5.07;;;2.50;;
5890;SDS011;2971;52.420;7.080;2023-06-14T07:11:33;5.87;;;2.13;;
5890;SDS011;2971;52.420;7.080;2023-06-14T07:13:58;5.47;;;2.20;;
5890;SDS011;2971;52.420;7.080;2023-06-14T07:16:24;4.00;;;2.20;;
5890;SDS011;2971;52.420;7.080;2023-06-14T07:18:50;4.00;;;2.13;;
5890;SDS011;2971;52.420;7.080;2023-06-14T07:21:16;5.37;;;2.50;;
5890;SDS011;2971;52.420;7.080;2023-06-14T07:23:41;4.03;;;2.50;;
5890;SDS011;2971;52.420;7.080;2023-06-14T07:26:07;3.23;;;2.30;;
5890;SDS011;2971;52.420;7.080;2023-06-14T07:28:33;2.77;;;2.43;;
5890;SDS011;2971;52.420;7.080;2023-06-14T07:30:59;4.77;;;2.47;;
5890;SDS011;2971;52.420;7.080;2023-06-14T07:33:24;6.70;;;2.30;;
5890;SDS011;2971;52.420;7.080;2023-06-14T07:35:50;3.37;;;2.50;;
5890;SDS011;2971;52.420;7.080;2023-06-14T07:38:17;3.30;;;2.30;;
5890;SDS011;2971;52.420;7.080;2023-06-14T07:40:42;3.43;;;2.20;;
5890;SDS011;2971;52.420;7.080;2023-06-14T07:43:08;4.23;;;2.43;;
5890;SDS011;2971;52.420;7.080;2023-06-14T07:45:33;4.43;;;2.43;;
5890;SDS011;2971;52.420;7.080;2023-06-14T07:47:59;3.70;;;2.20;;
5890;SDS011;2971;52.420;7.080;2023-06-14T07:50:24;4.97;;;3.17;;
5890;SDS011;2971;52.420;7.080;2023-06-14T07:52:50;5.93;;;2.23;;
5890;SDS011;2971;52.420;7.080;2023-06-14T07:55:15;3.70;;;2.30;;
5890;SDS011;2971;52.420;7.080;2023-06-14T07:57:41;2.53;;;2.10;;
5890;SDS011;2971;52.420;7.080;2023-06-14T08:00:08;2.37;;;2.17;;
5890;SDS011;2971;52.420;7.080;2023-06-14T08:02:36;2.60;;;2.40;;
5890;SDS011;2971;52.420;7.080;2023-06-14T08:05:01;5.63;;;2.40;;
5890;SDS011;2971;52.420;7.080;2023-06-14T08:07:26;4.00;;;2.23;;
5890;SDS011;2971;52.420;7.080;2023-06-14T08:09:52;5.30;;;2.73;;
5890;SDS011;2971;52.420;7.080;2023-06-14T08:12:17;2.57;;;2.17;;
5890;SDS011;2971;52.420;7.080;2023-06-14T08:14:43;3.80;;;2.27;;
5890;SDS011;2971;52.420;7.080;2023-06-14T08:17:08;2.40;;;2.10;;
5890;SDS011;2971;52.420;7.080;2023-06-14T08:19:33;2.93;;;2.10;;
5890;SDS011;2971;52.420;7.080;2023-06-14T08:21:59;2.63;;;2.20;;
5890;SDS011;2971;52.420;7.080;2023-06-14T08:24:25;2.20;;;2.00;;
5890;SDS011;2971;52.420;7.080;2023-06-14T08:26:52;5.53;;;2.30;;
5890;SDS011;2971;52.420;7.080;2023-06-14T08:29:18;2.87;;;2.10;;
5890;SDS011;2971;52.420;7.080;2023-06-14T08:31:43;5.00;;;2.43;;
5890;SDS011;2971;52.420;7.080;2023-06-14T08:34:09;6.37;;;2.50;;
5890;SDS011;2971;52.420;7.080;2023-06-14T08:36:35;3.90;;;2.17;;
5890;SDS011;2971;52.420;7.080;2023-06-14T08:39:01;4.07;;;2.50;;
5890;SDS011;2971;52.420;7.080;2023-06-14T08:41:26;5.60;;;2.50;;
5890;SDS011;2971;52.420;7.080;2023-06-14T08:43:54;3.10;;;2.00;;
5890;SDS011;2971;52.420;7.080;2023-06-14T08:46:20;2.30;;;2.10;;
5890;SDS011;2971;52.420;7.080;2023-06-14T08:48:47;4.00;;;2.40;;
5890;SDS011;2971;52.420;7.080;2023-06-14T08:51:14;5.60;;;2.20;;
5890;SDS011;2971;52.420;7.080;2023-06-14T08:53:52;2.77;;;2.33;;
5890;SDS011;2971;52.420;7.080;2023-06-14T08:56:22;3.73;;;2.30;;
5890;SDS011;2971;52.420;7.080;2023-06-14T08:58:50;5.30;;;2.40;;
5890;SDS011;2971;52.420;7.080;2023-06-14T09:01:16;4.33;;;2.50;;
5890;SDS011;2971;52.420;7.080;2023-06-14T09:03:42;3.00;;;2.57;;
5890;SDS011;2971;52.420;7.080;2023-06-14T09:06:11;4.63;;;2.73;;
5890;SDS011;2971;52.420;7.080;2023-06-14T09:08:42;3.43;;;2.43;;
5890;SDS011;2971;52.420;7.080;2023-06-14T09:11:10;3.67;;;2.40;;
5890;SDS011;2971;52.420;7.080;2023-06-14T09:13:36;2.40;;;2.00;;
5890;SDS011;2971;52.420;7.080;2023-06-14T09:16:02;2.80;;;2.50;;
5890;SDS011;2971;52.420;7.080;2023-06-14T09:18:37;2.73;;;2.47;;
5890;SDS011;2971;52.420;7.080;2023-06-14T09:21:08;4.30;;;2.00;;
5890;SDS011;2971;52.420;7.080;2023-06-14T09:23:36;4.47;;;2.30;;
5890;SDS011;2971;52.420;7.080;2023-06-14T09:26:06;3.07;;;2.23;;
5890;SDS011;2971;52.420;7.080;2023-06-14T09:28:55;3.13;;;2.20;;
5890;SDS011;2971;52.420;7.080;2023-06-14T09:31:21;3.53;;;2.00;;
5890;SDS011;2971;52.420;7.080;2023-06-14T09:33:50;4.83;;;2.20;;
5890;SDS011;2971;52.420;7.080;2023-06-14T09:36:22;3.17;;;2.20;;
5890;SDS011;2971;52.420;7.080;2023-06-14T09:38:52;2.83;;;2.30;;
5890;SDS011;2971;52.420;7.080;2023-06-14T09:41:26;2.83;;;2.27;;
5890;SDS011;2971;52.420;7.080;2023-06-14T09:43:57;5.73;;;2.40;;
5890;SDS011;2971;52.420;7.080;2023-06-14T09:46:26;2.33;;;2.13;;
5890;SDS011;2971;52.420;7.080;2023-06-14T09:48:51;4.13;;;2.50;;
5890;SDS011;2971;52.420;7.080;2023-06-14T09:51:17;5.30;;;2.57;;
5890;SDS011;2971;52.420;7.080;2023-06-14T09:53:45;3.80;;;2.40;;
5890;SDS011;2971;52.420;7.080;2023-06-14T09:56:12;4.53;;;2.37;;
5890;SDS011;2971;52.420;7.080;2023-06-14T09:58:38;5.93;;;3.07;;
5890;SDS011;2971;52.420;7.080;2023-06-14T10:01:04;2.20;;;2.00;;
5890;SDS011;2971;52.420;7.080;2023-06-14T10:03:33;2.63;;;2.30;;
5890;SDS011;2971;52.420;7.080;2023-06-14T10:05:59;5.47;;;3.17;;
5890;SDS011;2971;52.420;7.080;2023-06-14T10:08:28;5.67;;;2.60;;
5890;SDS011;2971;52.420;7.080;2023-06-14T10:10:57;4.13;;;3.10;;
5890;SDS011;2971;52.420;7.080;2023-06-14T10:13:23;4.87;;;2.37;;
5890;SDS011;2971;52.420;7.080;2023-06-14T10:18:32;5.40;;;2.50;;
5890;SDS011;2971;52.420;7.080;2023-06-14T10:21:16;3.70;;;2.33;;
5890;SDS011;2971;52.420;7.080;2023-06-14T10:23:47;4.93;;;2.13;;
5890;SDS011;2971;52.420;7.080;2023-06-14T10:26:17;3.53;;;2.30;;
5890;SDS011;2971;52.420;7.080;2023-06-14T10:28:54;2.53;;;2.30;;
5890;SDS011;2971;52.420;7.080;2023-06-14T10:31:44;2.90;;;2.17;;
5890;SDS011;2971;52.420;7.080;2023-06-14T10:34:11;2.10;;;1.90;;
5890;SDS011;2971;52.420;7.080;2023-06-14T10:36:38;4.20;;;2.30;;
5890;SDS011;2971;52.420;7.080;2023-06-14T10:39:07;4.07;;;2.20;;
5890;SDS011;2971;52.420;7.080;2023-06-14T10:41:36;4.60;;;2.43;;
5890;SDS011;2971;52.420;7.080;2023-06-14T10:46:37;5.40;;;2.37;;
5890;SDS011;2971;52.420;7.080;2023-06-14T10:49:02;3.67;;;2.20;;
5890;SDS011;2971;52.420;7.080;2023-06-14T10:51:29;5.10;;;2.10;;
5890;SDS011;2971;52.420;7.080;2023-06-14T10:53:55;2.90;;;1.77;;
5890;SDS011;2971;52.420;7.080;2023-06-14T10:56:30;2.13;;;1.93;;
5890;SDS011;2971;52.420;7.080;2023-06-14T10:58:59;4.63;;;2.33;;
5890;SDS011;2971;52.420;7.080;2023-06-14T11:01:37;3.20;;;1.80;;
5890;SDS011;2971;52.420;7.080;2023-06-14T11:04:07;2.53;;;2.27;;
5890;SDS011;2971;52.420;7.080;2023-06-14T11:11:57;4.07;;;1.70;;
5890;SDS011;2971;52.420;7.080;2023-06-14T11:14:23;3.70;;;2.00;;
5890;SDS011;2971;52.420;7.080;2023-06-14T11:16:51;2.40;;;2.20;;
5890;SDS011;2971;52.420;7.080;2023-06-14T11:19:17;5.20;;;2.00;;
5890;SDS011;2971;52.420;7.080;2023-06-14T11:21:42;6.53;;;2.20;;
5890;SDS011;2971;52.420;7.080;2023-06-14T11:24:11;2.47;;;2.20;;
5890;SDS011;2971;52.420;7.080;2023-06-14T11:26:37;5.73;;;2.20;;
5890;SDS011;2971;52.420;7.080;2023-06-14T11:29:03;2.23;;;2.00;;
5890;SDS011;2971;52.420;7.080;2023-06-14T11:31:28;2.20;;;1.70;;
5890;SDS011;2971;52.420;7.080;2023-06-14T11:33:55;3.20;;;1.70;;
5890;SDS011;2971;52.420;7.080;2023-06-14T11:36:22;3.07;;;1.83;;
5890;SDS011;2971;52.420;7.080;2023-06-14T11:38:49;3.20;;;1.90;;
5890;SDS011;2971;52.420;7.080;2023-06-14T11:41:15;4.27;;;2.13;;
5890;SDS011;2971;52.420;7.080;2023-06-14T11:43:40;3.83;;;1.90;;
5890;SDS011;2971;52.420;7.080;2023-06-14T11:46:12;5.37;;;2.03;;
5890;SDS011;2971;52.420;7.080;2023-06-14T11:48:40;4.13;;;1.90;;
5890;SDS011;2971;52.420;7.080;2023-06-14T11:51:08;2.20;;;2.00;;
5890;SDS011;2971;52.420;7.080;2023-06-14T11:53:33;3.40;;;2.10;;
5890;SDS011;2971;52.420;7.080;2023-06-14T11:55:59;3.27;;;1.80;;
5890;SDS011;2971;52.420;7.080;2023-06-14T11:58:25;2.00;;;1.80;;
5890;SDS011;2971;52.420;7.080;2023-06-14T12:00:52;2.07;;;1.90;;
5890;SDS011;2971;52.420;7.080;2023-06-14T12:03:22;2.83;;;2.03;;
5890;SDS011;2971;52.420;7.080;2023-06-14T12:05:50;4.40;;;1.97;;
5890;SDS011;2971;52.420;7.080;2023-06-14T12:08:31;3.50;;;2.00;;
5890;SDS011;2971;52.420;7.080;2023-06-14T12:11:04;2.05;;;1.83;;
5890;SDS011;2971;52.420;7.080;2023-06-14T12:13:31;3.37;;;2.00;;
5890;SDS011;2971;52.420;7.080;2023-06-14T12:15:56;2.80;;;1.90;;
5890;SDS011;2971;52.420;7.080;2023-06-14T12:18:31;2.20;;;2.00;;
5890;SDS011;2971;52.420;7.080;2023-06-14T12:20:59;4.32;;;1.77;;
5890;SDS011;2971;52.420;7.080;2023-06-14T12:23:38;4.13;;;2.10;;
5890;SDS011;2971;52.420;7.080;2023-06-14T12:26:04;5.40;;;1.85;;
5890;SDS011;2971;52.420;7.080;2023-06-14T12:28:31;3.87;;;1.90;;
5890;SDS011;2971;52.420;7.080;2023-06-14T12:30:56;2.22;;;1.90;;
5890;SDS011;2971;52.420;7.080;2023-06-14T12:33:24;5.23;;;2.17;;
5890;SDS011;2971;52.420;7.080;2023-06-14T12:35:49;2.97;;;2.10;;
5890;SDS011;2971;52.420;7.080;2023-06-14T12:38:15;2.42;;;1.90;;
5890;SDS011;2971;52.420;7.080;2023-06-14T12:40:41;5.88;;;1.88;;
5890;SDS011;2971;52.420;7.080;2023-06-14T12:43:07;2.30;;;2.10;;
5890;SDS011;2971;52.420;7.080;2023-06-14T12:45:33;2.03;;;1.75;;
5890;SDS011;2971;52.420;7.080;2023-06-14T12:47:58;3.17;;;2.00;;
5890;SDS011;2971;52.420;7.080;2023-06-14T12:50:23;3.97;;;2.17;;
5890;SDS011;2971;52.420;7.080;2023-06-14T12:52:49;3.35;;;2.28;;
5890;SDS011;2971;52.420;7.080;2023-06-14T12:55:15;4.75;;;2.05;;
5890;SDS011;2971;52.420;7.080;2023-06-14T12:57:41;3.28;;;2.00;;
5890;SDS011;2971;52.420;7.080;2023-06-14T13:00:06;2.45;;;2.00;;
5890;SDS011;2971;52.420;7.080;2023-06-14T13:02:33;3.63;;;2.00;;
5890;SDS011;2971;52.420;7.080;2023-06-14T13:04:58;5.05;;;1.90;;
5890;SDS011;2971;52.420;7.080;2023-06-14T13:07:24;4.60;;;2.13;;
5890;SDS011;2971;52.420;7.080;2023-06-14T13:09:49;2.30;;;2.10;;
5890;SDS011;2971;52.420;7.080;2023-06-14T13:12:15;4.32;;;1.77;;
5890;SDS011;2971;52.420;7.080;2023-06-14T13:14:40;3.00;;;2.30;;
5890;SDS011;2971;52.420;7.080;2023-06-14T13:17:07;1.98;;;1.77;;
5890;SDS011;2971;52.420;7.080;2023-06-14T13:19:34;2.58;;;1.70;;
5890;SDS011;2971;52.420;7.080;2023-06-14T13:22:00;4.82;;;1.90;;
5890;SDS011;2971;52.420;7.080;2023-06-14T13:24:25;4.85;;;1.80;;
5890;SDS011;2971;52.420;7.080;2023-06-14T13:26:51;2.97;;;1.80;;
5890;SDS011;2971;52.420;7.080;2023-06-14T13:29:16;2.30;;;1.60;;
5890;SDS011;2971;52.420;7.080;2023-06-14T13:31:42;2.53;;;1.73;;
5890;SDS011;2971;52.420;7.080;2023-06-14T13:34:07;2.30;;;1.90;;
5890;SDS011;2971;52.420;7.080;2023-06-14T13:36:35;2.85;;;1.88;;
5890;SDS011;2971;52.420;7.080;2023-06-14T13:39:01;2.25;;;1.73;;
5890;SDS011;2971;52.420;7.080;2023-06-14T13:41:27;2.00;;;1.80;;
5890;SDS011;2971;52.420;7.080;2023-06-14T13:43:58;4.15;;;2.10;;
5890;SDS011;2971;52.420;7.080;2023-06-14T13:46:24;2.10;;;1.90;;
5890;SDS011;2971;52.420;7.080;2023-06-14T13:48:49;2.47;;;1.80;;
5890;SDS011;2971;52.420;7.080;2023-06-14T13:51:15;3.88;;;1.77;;
5890;SDS011;2971;52.420;7.080;2023-06-14T13:53:42;2.88;;;2.03;;
5890;SDS011;2971;52.420;7.080;2023-06-14T13:56:08;1.95;;;1.70;;
5890;SDS011;2971;52.420;7.080;2023-06-14T13:58:37;1.98;;;1.67;;
5890;SDS011;2971;52.420;7.080;2023-06-14T14:01:02;2.95;;;1.73;;
5890;SDS011;2971;52.420;7.080;2023-06-14T14:03:28;1.80;;;1.60;;
5890;SDS011;2971;52.420;7.080;2023-06-14T14:05:53;3.63;;;1.63;;
5890;SDS011;2971;52.420;7.080;2023-06-14T14:08:19;2.00;;;1.70;;
5890;SDS011;2971;52.420;7.080;2023-06-14T14:10:44;1.83;;;1.70;;
5890;SDS011;2971;52.420;7.080;2023-06-14T14:13:10;3.08;;;1.77;;
5890;SDS011;2971;52.420;7.080;2023-06-14T14:15:35;2.72;;;1.70;;
5890;SDS011;2971;52.420;7.080;2023-06-14T14:18:01;2.38;;;1.50;;
5890;SDS011;2971;52.420;7.080;2023-06-14T14:20:30;2.45;;;1.70;;
5890;SDS011;2971;52.420;7.080;2023-06-14T14:22:56;1.88;;;1.75;;
5890;SDS011;2971;52.420;7.080;2023-06-14T14:25:21;2.70;;;1.80;;
5890;SDS011;2971;52.420;7.080;2023-06-14T14:27:47;4.90;;;1.80;;
5890;SDS011;2971;52.420;7.080;2023-06-14T14:30:12;2.47;;;1.98;;
5890;SDS011;2971;52.420;7.080;2023-06-14T14:32:39;2.00;;;1.90;;
5890;SDS011;2971;52.420;7.080;2023-06-14T14:35:05;1.77;;;1.67;;
5890;SDS011;2971;52.420;7.080;2023-06-14T14:37:31;4.07;;;1.92;;
5890;SDS011;2971;52.420;7.080;2023-06-14T14:39:57;2.45;;;1.90;;
5890;SDS011;2971;52.420;7.080;2023-06-14T14:42:22;3.72;;;1.70;;
5890;SDS011;2971;52.420;7.080;2023-06-14T14:44:47;2.38;;;1.77;;
5890;SDS011;2971;52.420;7.080;2023-06-14T14:47:13;2.78;;;1.83;;
5890;SDS011;2971;52.420;7.080;2023-06-14T14:49:38;3.17;;;1.77;;
5890;SDS011;2971;52.420;7.080;2023-06-14T14:52:04;1.95;;;1.80;;
5890;SDS011;2971;52.420;7.080;2023-06-14T14:54:30;2.85;;;1.80;;
5890;SDS011;2971;52.420;7.080;2023-06-14T14:56:55;1.85;;;1.75;;
5890;SDS011;2971;52.420;7.080;2023-06-14T14:59:21;2.13;;;1.92;;
5890;SDS011;2971;52.420;7.080;2023-06-14T15:01:49;2.72;;;2.20;;
5890;SDS011;2971;52.420;7.080;2023-06-14T15:04:16;3.13;;;2.10;;
5890;SDS011;2971;52.420;7.080;2023-06-14T15:06:41;2.60;;;2.05;;
5890;SDS011;2971;52.420;7.080;2023-06-14T15:09:06;5.10;;;1.90;;
5890;SDS011;2971;52.420;7.080;2023-06-14T15:11:32;2.00;;;1.90;;
5890;SDS011;2971;52.420;7.080;2023-06-14T15:13:57;4.40;;;2.10;;
5890;SDS011;2971;52.420;7.080;2023-06-14T15:16:23;2.35;;;1.90;;
5890;SDS011;2971;52.420;7.080;2023-06-14T15:18:49;4.35;;;2.05;;
5890;SDS011;2971;52.420;7.080;2023-06-14T15:21:14;2.50;;;1.92;;
5890;SDS011;2971;52.420;7.080;2023-06-14T15:23:39;2.03;;;1.63;;
5890;SDS011;2971;52.420;7.080;2023-06-14T15:26:05;4.13;;;1.85;;
5890;SDS011;2971;52.420;7.080;2023-06-14T15:28:30;2.90;;;2.05;;
5890;SDS011;2971;52.420;7.080;2023-06-14T15:30:58;3.08;;;1.80;;